sensor_id;sensor_type;location;lat;lon;timestamp;P1;durP1;ratioP1;P2;durP2;ratioP2
40072;SDS011;25774;52.256;9.356;2023-07-30T00:00:27;10.80;;;1.30;;
40072;SDS011;25774;52.256;9.356;2023-07-30T00:02:52;5.93;;;1.10;;
40072;SDS011;25774;52.256;9.356;2023-07-30T00:05:18;8.47;;;1.10;;
40072;SDS011;25774;52.256;9.356;2023-07-30T00:07:43;3.08;;;1.08;;
40072;SDS011;25774;52.256;9.356;2023-07-30T00:10:08;5.87;;;1.30;;
40072;SDS011;25774;52.256;9.356;2023-07-30T00:12:34;6.07;;;1.23;;
40072;SDS011;25774;52.256;9.356;2023-07-30T00:17:25;3.17;;;1.00;;
40072;SDS011;25774;52.256;9.356;2023-07-30T00:19:50;4.07;;;1.00;;
40072;SDS011;25774;52.256;9.356;2023-07-30T00:22:15;8.53;;;1.20;;
40072;SDS011;25774;52.256;9.356;2023-07-30T00:24:40;8.63;;;1.27;;
40072;SDS011;25774;52.256;9.356;2023-07-30T00:27:06;5.13;;;0.97;;
40072;SDS011;25774;52.256;9.356;2023-07-30T00:29:31;9.20;;;2.77;;
40072;SDS011;25774;52.256;9.356;2023-07-30T00:31:56;3.27;;;0.93;;
40072;SDS011;25774;52.256;9.356;2023-07-30T00:34:21;5.33;;;1.37;;
40072;SDS011;25774;52.256;9.356;2023-07-30T00:36:46;5.40;;;1.20;;
40072;SDS011;25774;52.256;9.356;2023-07-30T00:39:13;8.67;;;1.00;;
40072;SDS011;25774;52.256;9.356;2023-07-30T00:44:04;5.27;;;1.10;;
40072;SDS011;25774;52.256;9.356;2023-07-30T00:46:30;3.42;;;0.80;;
40072;SDS011;25774;52.256;9.356;2023-07-30T00:48:55;8.48;;;1.10;;
40072;SDS011;25774;52.256;9.356;2023-07-30T00:51:21;4.67;;;1.20;;
40072;SDS011;25774;52.256;9.356;2023-07-30T00:53:47;4.18;;;1.30;;
40072;SDS011;25774;52.256;9.356;2023-07-30T00:56:12;3.83;;;1.20;;
40072;SDS011;25774;52.256;9.356;2023-07-30T01:01:04;4.45;;;1.40;;
40072;SDS011;25774;52.256;9.356;2023-07-30T01:03:29;4.37;;;1.67;;
40072;SDS011;25774;52.256;9.356;2023-07-30T01:05:56;2.10;;;1.40;;
40072;SDS011;25774;52.256;9.356;2023-07-30T01:08:21;3.53;;;1.30;;
40072;SDS011;25774;52.256;9.356;2023-07-30T01:10:46;6.27;;;2.10;;
40072;SDS011;25774;52.256;9.356;2023-07-30T01:13:12;3.42;;;1.65;;
40072;SDS011;25774;52.256;9.356;2023-07-30T01:15:38;2.80;;;1.40;;
40072;SDS011;25774;52.256;9.356;2023-07-30T01:18:05;6.28;;;2.15;;
40072;SDS011;25774;52.256;9.356;2023-07-30T01:22:57;3.90;;;1.70;;
40072;SDS011;25774;52.256;9.356;2023-07-30T01:25:22;3.10;;;1.80;;
40072;SDS011;25774;52.256;9.356;2023-07-30T01:27:50;5.30;;;1.83;;
40072;SDS011;25774;52.256;9.356;2023-07-30T01:30:25;7.13;;;1.77;;
40072;SDS011;25774;52.256;9.356;2023-07-30T01:32:52;7.97;;;2.00;;
40072;SDS011;25774;52.256;9.356;2023-07-30T01:35:17;5.57;;;1.60;;
40072;SDS011;25774;52.256;9.356;2023-07-30T01:37:45;2.60;;;1.70;;
40072;SDS011;25774;52.256;9.356;2023-07-30T01:40:11;4.28;;;1.80;;
40072;SDS011;25774;52.256;9.356;2023-07-30T01:42:37;2.25;;;1.35;;
40072;SDS011;25774;52.256;9.356;2023-07-30T01:45:04;2.20;;;1.40;;
40072;SDS011;25774;52.256;9.356;2023-07-30T01:47:30;3.15;;;1.33;;
40072;SDS011;25774;52.256;9.356;2023-07-30T01:49:57;4.37;;;1.50;;
40072;SDS011;25774;52.256;9.356;2023-07-30T01:52:25;5.40;;;1.92;;
40072;SDS011;25774;52.256;9.356;2023-07-30T01:54:50;3.72;;;1.85;;
40072;SDS011;25774;52.256;9.356;2023-07-30T01:57:15;3.23;;;1.33;;
40072;SDS011;25774;52.256;9.356;2023-07-30T01:59:40;7.90;;;1.30;;
40072;SDS011;25774;52.256;9.356;2023-07-30T02:02:05;5.03;;;1.57;;
40072;SDS011;25774;52.256;9.356;2023-07-30T02:06:58;4.55;;;1.60;;
40072;SDS011;25774;52.256;9.356;2023-07-30T02:09:23;9.07;;;1.90;;
40072;SDS011;25774;52.256;9.356;2023-07-30T02:11:48;3.55;;;1.50;;
40072;SDS011;25774;52.256;9.356;2023-07-30T02:14:14;4.10;;;1.50;;
40072;SDS011;25774;52.256;9.356;2023-07-30T02:16:39;4.80;;;1.60;;
40072;SDS011;25774;52.256;9.356;2023-07-30T02:19:04;4.30;;;1.70;;
40072;SDS011;25774;52.256;9.356;2023-07-30T02:21:29;4.20;;;1.43;;
40072;SDS011;25774;52.256;9.356;2023-07-30T02:23:57;7.68;;;3.58;;
40072;SDS011;25774;52.256;9.356;2023-07-30T02:26:22;8.60;;;7.50;;
40072;SDS011;25774;52.256;9.356;2023-07-30T02:28:47;4.53;;;3.63;;
40072;SDS011;25774;52.256;9.356;2023-07-30T02:31:14;15.87;;;14.40;;
40072;SDS011;25774;52.256;9.356;2023-07-30T02:36:04;3.63;;;1.63;;
40072;SDS011;25774;52.256;9.356;2023-07-30T02:38:29;4.53;;;1.30;;
40072;SDS011;25774;52.256;9.356;2023-07-30T02:40:54;5.23;;;1.90;;
40072;SDS011;25774;52.256;9.356;2023-07-30T02:43:20;5.40;;;1.53;;
40072;SDS011;25774;52.256;9.356;2023-07-30T02:45:48;5.40;;;1.40;;
40072;SDS011;25774;52.256;9.356;2023-07-30T02:48:13;4.20;;;1.83;;
40072;SDS011;25774;52.256;9.356;2023-07-30T02:50:39;4.47;;;1.57;;
40072;SDS011;25774;52.256;9.356;2023-07-30T02:53:04;2.87;;;1.53;;
40072;SDS011;25774;52.256;9.356;2023-07-30T02:55:29;3.43;;;1.80;;
40072;SDS011;25774;52.256;9.356;2023-07-30T02:57:54;3.93;;;1.80;;
40072;SDS011;25774;52.256;9.356;2023-07-30T03:00:20;3.63;;;1.73;;
40072;SDS011;25774;52.256;9.356;2023-07-30T03:02:45;5.23;;;1.80;;
40072;SDS011;25774;52.256;9.356;2023-07-30T03:05:11;7.00;;;1.80;;
40072;SDS011;25774;52.256;9.356;2023-07-30T03:10:02;7.32;;;1.70;;
40072;SDS011;25774;52.256;9.356;2023-07-30T03:14:53;3.97;;;1.40;;
40072;SDS011;25774;52.256;9.356;2023-07-30T03:17:18;6.60;;;1.90;;
40072;SDS011;25774;52.256;9.356;2023-07-30T03:19:43;4.93;;;1.60;;
40072;SDS011;25774;52.256;9.356;2023-07-30T03:22:09;2.77;;;1.40;;
40072;SDS011;25774;52.256;9.356;2023-07-30T03:24:34;4.20;;;1.53;;
40072;SDS011;25774;52.256;9.356;2023-07-30T03:26:59;2.60;;;1.60;;
40072;SDS011;25774;52.256;9.356;2023-07-30T03:29:24;5.90;;;2.13;;
40072;SDS011;25774;52.256;9.356;2023-07-30T03:31:50;5.07;;;1.90;;
40072;SDS011;25774;52.256;9.356;2023-07-30T03:34:15;4.17;;;1.70;;
40072;SDS011;25774;52.256;9.356;2023-07-30T03:36:40;5.27;;;1.97;;
40072;SDS011;25774;52.256;9.356;2023-07-30T03:39:05;4.10;;;1.67;;
40072;SDS011;25774;52.256;9.356;2023-07-30T03:41:31;3.03;;;1.50;;
40072;SDS011;25774;52.256;9.356;2023-07-30T03:43:56;4.33;;;1.80;;
40072;SDS011;25774;52.256;9.356;2023-07-30T03:46:21;4.73;;;1.80;;
40072;SDS011;25774;52.256;9.356;2023-07-30T03:48:47;6.20;;;1.90;;
40072;SDS011;25774;52.256;9.356;2023-07-30T03:53:38;9.20;;;2.10;;
40072;SDS011;25774;52.256;9.356;2023-07-30T03:56:03;4.57;;;1.80;;
40072;SDS011;25774;52.256;9.356;2023-07-30T03:58:28;5.63;;;2.00;;
40072;SDS011;25774;52.256;9.356;2023-07-30T04:00:55;5.03;;;1.73;;
40072;SDS011;25774;52.256;9.356;2023-07-30T04:03:20;5.00;;;2.53;;
40072;SDS011;25774;52.256;9.356;2023-07-30T04:05:47;4.00;;;1.87;;
40072;SDS011;25774;52.256;9.356;2023-07-30T04:10:37;4.97;;;3.20;;
40072;SDS011;25774;52.256;9.356;2023-07-30T04:13:02;6.27;;;3.47;;
40072;SDS011;25774;52.256;9.356;2023-07-30T04:15:28;6.43;;;3.23;;
40072;SDS011;25774;52.256;9.356;2023-07-30T04:17:53;6.70;;;3.60;;
40072;SDS011;25774;52.256;9.356;2023-07-30T04:20:18;5.77;;;2.87;;
40072;SDS011;25774;52.256;9.356;2023-07-30T04:22:44;7.33;;;3.50;;
40072;SDS011;25774;52.256;9.356;2023-07-30T04:25:09;6.13;;;2.97;;
40072;SDS011;25774;52.256;9.356;2023-07-30T04:27:36;6.03;;;3.22;;
40072;SDS011;25774;52.256;9.356;2023-07-30T04:30:01;4.93;;;3.20;;
40072;SDS011;25774;52.256;9.356;2023-07-30T04:32:26;6.10;;;3.07;;
40072;SDS011;25774;52.256;9.356;2023-07-30T04:34:51;6.63;;;3.03;;
40072;SDS011;25774;52.256;9.356;2023-07-30T04:37:16;5.83;;;3.07;;
40072;SDS011;25774;52.256;9.356;2023-07-30T04:39:42;5.90;;;3.23;;
40072;SDS011;25774;52.256;9.356;2023-07-30T04:42:07;5.47;;;2.83;;
40072;SDS011;25774;52.256;9.356;2023-07-30T04:44:34;5.63;;;2.63;;
40072;SDS011;25774;52.256;9.356;2023-07-30T04:47:00;6.45;;;3.28;;
40072;SDS011;25774;52.256;9.356;2023-07-30T04:51:51;8.27;;;2.83;;
40072;SDS011;25774;52.256;9.356;2023-07-30T04:54:16;7.03;;;2.97;;
40072;SDS011;25774;52.256;9.356;2023-07-30T04:56:41;5.23;;;2.77;;
40072;SDS011;25774;52.256;9.356;2023-07-30T04:59:06;4.03;;;2.67;;
40072;SDS011;25774;52.256;9.356;2023-07-30T05:01:32;8.70;;;2.87;;
40072;SDS011;25774;52.256;9.356;2023-07-30T05:06:23;5.95;;;2.80;;
40072;SDS011;25774;52.256;9.356;2023-07-30T05:08:48;10.20;;;6.60;;
40072;SDS011;25774;52.256;9.356;2023-07-30T05:11:13;10.87;;;4.83;;
40072;SDS011;25774;52.256;9.356;2023-07-30T05:13:38;6.40;;;4.67;;
40072;SDS011;25774;52.256;9.356;2023-07-30T05:16:04;7.17;;;4.67;;
40072;SDS011;25774;52.256;9.356;2023-07-30T05:18:29;7.33;;;3.97;;
40072;SDS011;25774;52.256;9.356;2023-07-30T05:20:54;9.90;;;4.37;;
40072;SDS011;25774;52.256;9.356;2023-07-30T05:23:21;5.70;;;4.07;;
40072;SDS011;25774;52.256;9.356;2023-07-30T05:25:46;7.55;;;4.55;;
40072;SDS011;25774;52.256;9.356;2023-07-30T05:28:11;7.13;;;4.40;;
40072;SDS011;25774;52.256;9.356;2023-07-30T05:30:36;6.47;;;3.73;;
40072;SDS011;25774;52.256;9.356;2023-07-30T05:33:02;6.50;;;3.20;;
40072;SDS011;25774;52.256;9.356;2023-07-30T05:35:27;9.67;;;3.97;;
40072;SDS011;25774;52.256;9.356;2023-07-30T05:37:52;8.30;;;4.40;;
40072;SDS011;25774;52.256;9.356;2023-07-30T05:40:17;6.53;;;3.80;;
40072;SDS011;25774;52.256;9.356;2023-07-30T05:42:43;9.20;;;2.93;;
40072;SDS011;25774;52.256;9.356;2023-07-30T05:45:08;7.30;;;3.00;;
40072;SDS011;25774;52.256;9.356;2023-07-30T05:47:33;6.38;;;2.95;;
40072;SDS011;25774;52.256;9.356;2023-07-30T05:49:59;7.10;;;2.70;;
40072;SDS011;25774;52.256;9.356;2023-07-30T05:52:24;5.33;;;2.43;;
40072;SDS011;25774;52.256;9.356;2023-07-30T05:54:49;3.83;;;2.23;;
40072;SDS011;25774;52.256;9.356;2023-07-30T05:57:14;5.20;;;2.10;;
40072;SDS011;25774;52.256;9.356;2023-07-30T05:59:40;6.43;;;2.43;;
40072;SDS011;25774;52.256;9.356;2023-07-30T06:02:05;5.17;;;2.10;;
40072;SDS011;25774;52.256;9.356;2023-07-30T06:04:31;4.90;;;2.33;;
40072;SDS011;25774;52.256;9.356;2023-07-30T06:06:58;6.18;;;3.00;;
40072;SDS011;25774;52.256;9.356;2023-07-30T06:09:23;6.22;;;2.50;;
40072;SDS011;25774;52.256;9.356;2023-07-30T06:11:48;7.37;;;2.63;;
40072;SDS011;25774;52.256;9.356;2023-07-30T06:14:14;9.27;;;2.90;;
40072;SDS011;25774;52.256;9.356;2023-07-30T06:19:05;9.07;;;3.20;;
40072;SDS011;25774;52.256;9.356;2023-07-30T06:21:30;6.20;;;2.30;;
40072;SDS011;25774;52.256;9.356;2023-07-30T06:23:55;5.27;;;2.33;;
40072;SDS011;25774;52.256;9.356;2023-07-30T06:26:20;5.03;;;2.10;;
40072;SDS011;25774;52.256;9.356;2023-07-30T06:28:46;9.40;;;3.27;;
40072;SDS011;25774;52.256;9.356;2023-07-30T06:31:11;4.60;;;2.33;;
40072;SDS011;25774;52.256;9.356;2023-07-30T06:33:36;5.40;;;1.93;;
40072;SDS011;25774;52.256;9.356;2023-07-30T06:36:03;5.53;;;2.10;;
40072;SDS011;25774;52.256;9.356;2023-07-30T06:38:28;9.80;;;2.20;;
40072;SDS011;25774;52.256;9.356;2023-07-30T06:40:53;4.80;;;2.47;;
40072;SDS011;25774;52.256;9.356;2023-07-30T06:43:18;4.63;;;2.07;;
40072;SDS011;25774;52.256;9.356;2023-07-30T06:45:44;9.83;;;3.20;;
40072;SDS011;25774;52.256;9.356;2023-07-30T06:48:09;8.20;;;1.93;;
40072;SDS011;25774;52.256;9.356;2023-07-30T06:50:34;4.23;;;1.97;;
40072;SDS011;25774;52.256;9.356;2023-07-30T06:52:59;6.60;;;1.67;;
40072;SDS011;25774;52.256;9.356;2023-07-30T06:55:25;7.00;;;2.17;;
40072;SDS011;25774;52.256;9.356;2023-07-30T06:57:50;6.60;;;1.43;;
40072;SDS011;25774;52.256;9.356;2023-07-30T07:00:15;11.67;;;1.90;;
40072;SDS011;25774;52.256;9.356;2023-07-30T07:02:46;4.80;;;1.77;;
40072;SDS011;25774;52.256;9.356;2023-07-30T07:05:11;7.00;;;2.22;;
40072;SDS011;25774;52.256;9.356;2023-07-30T07:07:37;4.97;;;1.73;;
40072;SDS011;25774;52.256;9.356;2023-07-30T07:10:02;7.67;;;2.67;;
40072;SDS011;25774;52.256;9.356;2023-07-30T07:12:27;6.40;;;2.00;;
40072;SDS011;25774;52.256;9.356;2023-07-30T07:14:52;9.13;;;2.47;;
40072;SDS011;25774;52.256;9.356;2023-07-30T07:17:18;6.63;;;2.07;;
40072;SDS011;25774;52.256;9.356;2023-07-30T07:19:44;10.20;;;2.30;;
40072;SDS011;25774;52.256;9.356;2023-07-30T07:24:34;5.70;;;2.07;;
40072;SDS011;25774;52.256;9.356;2023-07-30T07:26:59;4.10;;;1.53;;
40072;SDS011;25774;52.256;9.356;2023-07-30T07:29:26;6.50;;;2.10;;
40072;SDS011;25774;52.256;9.356;2023-07-30T07:34:16;6.47;;;1.93;;
40072;SDS011;25774;52.256;9.356;2023-07-30T07:36:41;5.37;;;2.13;;
40072;SDS011;25774;52.256;9.356;2023-07-30T07:39:07;5.97;;;2.33;;
40072;SDS011;25774;52.256;9.356;2023-07-30T07:41:32;7.93;;;2.80;;
40072;SDS011;25774;52.256;9.356;2023-07-30T07:43:57;7.50;;;2.70;;
40072;SDS011;25774;52.256;9.356;2023-07-30T07:46:23;7.30;;;2.50;;
40072;SDS011;25774;52.256;9.356;2023-07-30T07:48:51;4.90;;;2.70;;
40072;SDS011;25774;52.256;9.356;2023-07-30T07:51:16;8.70;;;3.07;;
40072;SDS011;25774;52.256;9.356;2023-07-30T07:53:41;8.60;;;2.60;;
40072;SDS011;25774;52.256;9.356;2023-07-30T07:56:06;8.77;;;3.20;;
40072;SDS011;25774;52.256;9.356;2023-07-30T07:58:32;8.48;;;2.83;;
40072;SDS011;25774;52.256;9.356;2023-07-30T08:00:58;6.43;;;2.47;;
40072;SDS011;25774;52.256;9.356;2023-07-30T08:03:23;8.95;;;3.22;;
40072;SDS011;25774;52.256;9.356;2023-07-30T08:05:52;6.30;;;2.90;;
40072;SDS011;25774;52.256;9.356;2023-07-30T08:08:18;7.68;;;3.08;;
40072;SDS011;25774;52.256;9.356;2023-07-30T08:10:43;6.87;;;2.90;;
40072;SDS011;25774;52.256;9.356;2023-07-30T08:13:11;7.60;;;2.65;;
40072;SDS011;25774;52.256;9.356;2023-07-30T08:15:36;7.07;;;2.38;;
40072;SDS011;25774;52.256;9.356;2023-07-30T08:18:02;7.43;;;3.40;;
40072;SDS011;25774;52.256;9.356;2023-07-30T08:20:27;7.30;;;3.20;;
40072;SDS011;25774;52.256;9.356;2023-07-30T08:22:53;9.65;;;3.72;;
40072;SDS011;25774;52.256;9.356;2023-07-30T08:25:18;6.70;;;3.67;;
40072;SDS011;25774;52.256;9.356;2023-07-30T08:27:44;10.93;;;4.50;;
40072;SDS011;25774;52.256;9.356;2023-07-30T08:30:10;11.02;;;4.55;;
40072;SDS011;25774;52.256;9.356;2023-07-30T08:32:35;5.97;;;3.50;;
40072;SDS011;25774;52.256;9.356;2023-07-30T08:35:01;6.63;;;3.90;;
40072;SDS011;25774;52.256;9.356;2023-07-30T08:37:26;10.60;;;4.80;;
40072;SDS011;25774;52.256;9.356;2023-07-30T08:39:51;12.30;;;4.70;;
40072;SDS011;25774;52.256;9.356;2023-07-30T08:42:17;8.55;;;4.72;;
40072;SDS011;25774;52.256;9.356;2023-07-30T08:44:42;8.53;;;4.07;;
40072;SDS011;25774;52.256;9.356;2023-07-30T08:49:32;7.60;;;3.93;;
40072;SDS011;25774;52.256;9.356;2023-07-30T08:51:58;7.07;;;3.78;;
40072;SDS011;25774;52.256;9.356;2023-07-30T08:54:25;7.85;;;3.80;;
40072;SDS011;25774;52.256;9.356;2023-07-30T08:56:51;9.27;;;3.38;;
40072;SDS011;25774;52.256;9.356;2023-07-30T09:01:42;7.93;;;2.83;;
40072;SDS011;25774;52.256;9.356;2023-07-30T09:04:08;7.10;;;3.00;;
40072;SDS011;25774;52.256;9.356;2023-07-30T09:08:59;5.80;;;2.90;;
40072;SDS011;25774;52.256;9.356;2023-07-30T09:11:27;5.30;;;2.53;;
40072;SDS011;25774;52.256;9.356;2023-07-30T09:13:53;6.05;;;3.03;;
40072;SDS011;25774;52.256;9.356;2023-07-30T09:16:18;9.10;;;3.65;;
40072;SDS011;25774;52.256;9.356;2023-07-30T09:21:12;6.85;;;2.75;;
40072;SDS011;25774;52.256;9.356;2023-07-30T09:23:47;5.45;;;3.17;;
40072;SDS011;25774;52.256;9.356;2023-07-30T09:26:13;5.82;;;3.42;;
40072;SDS011;25774;52.256;9.356;2023-07-30T09:31:06;6.73;;;3.67;;
40072;SDS011;25774;52.256;9.356;2023-07-30T09:33:31;5.63;;;3.40;;
40072;SDS011;25774;52.256;9.356;2023-07-30T09:36:01;5.30;;;3.72;;
40072;SDS011;25774;52.256;9.356;2023-07-30T09:38:26;6.75;;;3.42;;
40072;SDS011;25774;52.256;9.356;2023-07-30T09:40:59;8.05;;;3.75;;
40072;SDS011;25774;52.256;9.356;2023-07-30T09:43:28;6.57;;;4.15;;
40072;SDS011;25774;52.256;9.356;2023-07-30T09:45:53;6.60;;;3.70;;
40072;SDS011;25774;52.256;9.356;2023-07-30T09:50:43;9.87;;;4.30;;
40072;SDS011;25774;52.256;9.356;2023-07-30T09:55:36;9.30;;;4.95;;
40072;SDS011;25774;52.256;9.356;2023-07-30T09:58:02;7.90;;;5.05;;
40072;SDS011;25774;52.256;9.356;2023-07-30T10:02:52;11.93;;;5.82;;
40072;SDS011;25774;52.256;9.356;2023-07-30T10:05:18;9.93;;;5.07;;
40072;SDS011;25774;52.256;9.356;2023-07-30T10:08:05;10.75;;;6.28;;
40072;SDS011;25774;52.256;9.356;2023-07-30T10:10:29;10.88;;;6.00;;
40072;SDS011;25774;52.256;9.356;2023-07-30T10:12:56;11.23;;;6.90;;
40072;SDS011;25774;52.256;9.356;2023-07-30T10:15:23;13.23;;;6.80;;
40072;SDS011;25774;52.256;9.356;2023-07-30T10:20:23;10.35;;;6.82;;
40072;SDS011;25774;52.256;9.356;2023-07-30T10:22:56;11.30;;;6.72;;
40072;SDS011;25774;52.256;9.356;2023-07-30T10:25:22;11.63;;;6.47;;
40072;SDS011;25774;52.256;9.356;2023-07-30T10:27:49;14.65;;;7.05;;
40072;SDS011;25774;52.256;9.356;2023-07-30T10:30:15;9.60;;;6.88;;
40072;SDS011;25774;52.256;9.356;2023-07-30T10:35:06;11.90;;;7.60;;
40072;SDS011;25774;52.256;9.356;2023-07-30T10:37:31;15.93;;;8.27;;
40072;SDS011;25774;52.256;9.356;2023-07-30T10:39:57;12.50;;;7.40;;
40072;SDS011;25774;52.256;9.356;2023-07-30T10:42:22;12.27;;;7.40;;
40072;SDS011;25774;52.256;9.356;2023-07-30T10:44:48;14.43;;;9.00;;
40072;SDS011;25774;52.256;9.356;2023-07-30T10:47:14;12.52;;;8.43;;
40072;SDS011;25774;52.256;9.356;2023-07-30T10:49:40;13.30;;;9.55;;
40072;SDS011;25774;52.256;9.356;2023-07-30T10:54:34;16.17;;;10.00;;
40072;SDS011;25774;52.256;9.356;2023-07-30T10:57:02;13.02;;;10.13;;
40072;SDS011;25774;52.256;9.356;2023-07-30T10:59:32;15.80;;;10.35;;
40072;SDS011;25774;52.256;9.356;2023-07-30T11:02:05;16.45;;;9.52;;
40072;SDS011;25774;52.256;9.356;2023-07-30T11:04:33;15.27;;;10.63;;
40072;SDS011;25774;52.256;9.356;2023-07-30T11:09:26;15.32;;;9.85;;
40072;SDS011;25774;52.256;9.356;2023-07-30T11:11:52;16.08;;;9.82;;
40072;SDS011;25774;52.256;9.356;2023-07-30T11:14:18;18.27;;;10.43;;
40072;SDS011;25774;52.256;9.356;2023-07-30T11:16:50;13.73;;;9.63;;
40072;SDS011;25774;52.256;9.356;2023-07-30T11:19:16;14.32;;;9.55;;
40072;SDS011;25774;52.256;9.356;2023-07-30T11:24:08;15.63;;;9.30;;
40072;SDS011;25774;52.256;9.356;2023-07-30T11:26:33;13.98;;;9.55;;
40072;SDS011;25774;52.256;9.356;2023-07-30T11:31:23;14.00;;;8.70;;
40072;SDS011;25774;52.256;9.356;2023-07-30T11:33:51;11.88;;;7.80;;
40072;SDS011;25774;52.256;9.356;2023-07-30T11:38:43;13.90;;;8.45;;
40072;SDS011;25774;52.256;9.356;2023-07-30T11:43:36;12.90;;;8.32;;
40072;SDS011;25774;52.256;9.356;2023-07-30T11:46:09;12.75;;;7.78;;
40072;SDS011;25774;52.256;9.356;2023-07-30T11:48:34;13.57;;;7.45;;
40072;SDS011;25774;52.256;9.356;2023-07-30T11:51:01;10.80;;;7.05;;
40072;SDS011;25774;52.256;9.356;2023-07-30T11:59:00;11.27;;;6.28;;
40072;SDS011;25774;52.256;9.356;2023-07-30T12:01:31;11.98;;;5.80;;
40072;SDS011;25774;52.256;9.356;2023-07-30T12:03:58;11.07;;;5.80;;
40072;SDS011;25774;52.256;9.356;2023-07-30T12:06:24;9.32;;;4.90;;
40072;SDS011;25774;52.256;9.356;2023-07-30T12:11:14;7.20;;;4.10;;
40072;SDS011;25774;52.256;9.356;2023-07-30T12:13:42;11.50;;;5.05;;
40072;SDS011;25774;52.256;9.356;2023-07-30T12:16:10;7.28;;;4.15;;
40072;SDS011;25774;52.256;9.356;2023-07-30T12:18:39;8.50;;;3.75;;
40072;SDS011;25774;52.256;9.356;2023-07-30T12:21:04;7.80;;;4.20;;
40072;SDS011;25774;52.256;9.356;2023-07-30T12:23:32;10.25;;;3.83;;
40072;SDS011;25774;52.256;9.356;2023-07-30T12:28:23;9.10;;;4.03;;
40072;SDS011;25774;52.256;9.356;2023-07-30T12:33:13;9.20;;;3.95;;
40072;SDS011;25774;52.256;9.356;2023-07-30T12:38:03;6.95;;;3.53;;
40072;SDS011;25774;52.256;9.356;2023-07-30T12:42:58;7.97;;;3.58;;
40072;SDS011;25774;52.256;9.356;2023-07-30T12:47:49;5.80;;;3.30;;
40072;SDS011;25774;52.256;9.356;2023-07-30T12:52:39;9.25;;;3.30;;
40072;SDS011;25774;52.256;9.356;2023-07-30T12:57:30;9.00;;;3.53;;
40072;SDS011;25774;52.256;9.356;2023-07-30T13:02:20;8.10;;;3.40;;
40072;SDS011;25774;52.256;9.356;2023-07-30T13:07:10;5.93;;;2.63;;
40072;SDS011;25774;52.256;9.356;2023-07-30T13:12:01;6.82;;;2.75;;
40072;SDS011;25774;52.256;9.356;2023-07-30T13:16:51;8.40;;;2.95;;
40072;SDS011;25774;52.256;9.356;2023-07-30T13:21:41;6.13;;;2.13;;
40072;SDS011;25774;52.256;9.356;2023-07-30T13:26:32;4.70;;;1.80;;
40072;SDS011;25774;52.256;9.356;2023-07-30T13:31:22;7.27;;;1.73;;
40072;SDS011;25774;52.256;9.356;2023-07-30T13:36:13;4.57;;;1.70;;
40072;SDS011;25774;52.256;9.356;2023-07-30T13:41:04;6.40;;;1.38;;
40072;SDS011;25774;52.256;9.356;2023-07-30T13:45:56;3.50;;;1.33;;
40072;SDS011;25774;52.256;9.356;2023-07-30T13:48:24;3.97;;;1.20;;
40072;SDS011;25774;52.256;9.356;2023-07-30T13:50:49;3.88;;;1.13;;
40072;SDS011;25774;52.256;9.356;2023-07-30T13:53:14;3.90;;;1.10;;
40072;SDS011;25774;52.256;9.356;2023-07-30T13:58:07;4.05;;;1.20;;
40072;SDS011;25774;52.256;9.356;2023-07-30T14:00:33;4.45;;;1.00;;
40072;SDS011;25774;52.256;9.356;2023-07-30T14:05:23;3.67;;;1.10;;
40072;SDS011;25774;52.256;9.356;2023-07-30T14:12:41;4.72;;;0.90;;
40072;SDS011;25774;52.256;9.356;2023-07-30T14:17:32;2.97;;;0.80;;
40072;SDS011;25774;52.256;9.356;2023-07-30T14:22:23;3.50;;;0.68;;
40072;SDS011;25774;52.256;9.356;2023-07-30T14:24:48;6.57;;;0.95;;
40072;SDS011;25774;52.256;9.356;2023-07-30T14:29:40;8.55;;;1.08;;
40072;SDS011;25774;52.256;9.356;2023-07-30T14:34:30;4.22;;;1.00;;
40072;SDS011;25774;52.256;9.356;2023-07-30T14:39:21;3.47;;;0.90;;
40072;SDS011;25774;52.256;9.356;2023-07-30T14:44:13;5.55;;;0.90;;
40072;SDS011;25774;52.256;9.356;2023-07-30T14:46:39;4.70;;;0.70;;
40072;SDS011;25774;52.256;9.356;2023-07-30T14:49:04;3.83;;;0.80;;
40072;SDS011;25774;52.256;9.356;2023-07-30T14:53:55;3.65;;;0.70;;
40072;SDS011;25774;52.256;9.356;2023-07-30T14:58:45;3.38;;;0.75;;
40072;SDS011;25774;52.256;9.356;2023-07-30T15:03:35;2.37;;;0.40;;
40072;SDS011;25774;52.256;9.356;2023-07-30T15:08:26;4.75;;;0.60;;
40072;SDS011;25774;52.256;9.356;2023-07-30T15:13:17;2.55;;;0.50;;
40072;SDS011;25774;52.256;9.356;2023-07-30T15:18:08;3.03;;;0.70;;
40072;SDS011;25774;52.256;9.356;2023-07-30T15:22:58;2.00;;;0.33;;
40072;SDS011;25774;52.256;9.356;2023-07-30T15:27:49;3.65;;;0.60;;
40072;SDS011;25774;52.256;9.356;2023-07-30T15:32:42;5.45;;;1.08;;
40072;SDS011;25774;52.256;9.356;2023-07-30T15:35:08;4.82;;;0.90;;
40072;SDS011;25774;52.256;9.356;2023-07-30T15:39:58;3.53;;;0.77;;
40072;SDS011;25774;52.256;9.356;2023-07-30T15:44:48;4.63;;;0.75;;
40072;SDS011;25774;52.256;9.356;2023-07-30T15:49:39;3.83;;;0.60;;
40072;SDS011;25774;52.256;9.356;2023-07-30T15:54:36;3.88;;;0.45;;
40072;SDS011;25774;52.256;9.356;2023-07-30T15:57:02;2.47;;;0.65;;
40072;SDS011;25774;52.256;9.356;2023-07-30T15:59:28;6.90;;;1.20;;
40072;SDS011;25774;52.256;9.356;2023-07-30T16:04:20;2.88;;;0.65;;
40072;SDS011;25774;52.256;9.356;2023-07-30T16:06:46;3.85;;;0.70;;
40072;SDS011;25774;52.256;9.356;2023-07-30T16:09:12;3.03;;;0.60;;
40072;SDS011;25774;52.256;9.356;2023-07-30T16:11:37;3.80;;;0.65;;
40072;SDS011;25774;52.256;9.356;2023-07-30T16:14:04;3.50;;;0.50;;
40072;SDS011;25774;52.256;9.356;2023-07-30T16:16:29;4.88;;;0.60;;
40072;SDS011;25774;52.256;9.356;2023-07-30T16:21:23;2.78;;;0.65;;
40072;SDS011;25774;52.256;9.356;2023-07-30T16:23:48;3.13;;;0.77;;
40072;SDS011;25774;52.256;9.356;2023-07-30T16:26:14;2.40;;;0.60;;
40072;SDS011;25774;52.256;9.356;2023-07-30T16:31:04;5.33;;;1.03;;
40072;SDS011;25774;52.256;9.356;2023-07-30T16:35:55;2.17;;;0.60;;
40072;SDS011;25774;52.256;9.356;2023-07-30T16:40:45;3.13;;;0.50;;
40072;SDS011;25774;52.256;9.356;2023-07-30T16:43:12;4.00;;;0.90;;
40072;SDS011;25774;52.256;9.356;2023-07-30T16:45:38;2.85;;;0.55;;
40072;SDS011;25774;52.256;9.356;2023-07-30T16:48:03;3.07;;;0.53;;
40072;SDS011;25774;52.256;9.356;2023-07-30T16:52:56;2.77;;;0.60;;
40072;SDS011;25774;52.256;9.356;2023-07-30T16:55:21;4.30;;;0.77;;
40072;SDS011;25774;52.256;9.356;2023-07-30T16:57:47;2.40;;;0.70;;
40072;SDS011;25774;52.256;9.356;2023-07-30T17:02:37;2.30;;;0.57;;
40072;SDS011;25774;52.256;9.356;2023-07-30T17:07:28;2.40;;;0.70;;
40072;SDS011;25774;52.256;9.356;2023-07-30T17:12:18;2.88;;;0.60;;
40072;SDS011;25774;52.256;9.356;2023-07-30T17:17:09;3.65;;;0.90;;
40072;SDS011;25774;52.256;9.356;2023-07-30T17:21:59;2.20;;;0.80;;
40072;SDS011;25774;52.256;9.356;2023-07-30T17:26:49;2.63;;;0.80;;
40072;SDS011;25774;52.256;9.356;2023-07-30T17:31:40;2.17;;;0.40;;
40072;SDS011;25774;52.256;9.356;2023-07-30T17:36:30;3.07;;;0.50;;
40072;SDS011;25774;52.256;9.356;2023-07-30T17:38:58;3.90;;;0.70;;
40072;SDS011;25774;52.256;9.356;2023-07-30T17:41:23;2.85;;;0.73;;
40072;SDS011;25774;52.256;9.356;2023-07-30T17:46:14;3.63;;;0.90;;
40072;SDS011;25774;52.256;9.356;2023-07-30T17:51:12;3.07;;;0.57;;
40072;SDS011;25774;52.256;9.356;2023-07-30T17:53:37;3.63;;;0.50;;
40072;SDS011;25774;52.256;9.356;2023-07-30T17:58:27;3.60;;;0.60;;
40072;SDS011;25774;52.256;9.356;2023-07-30T18:00:53;2.93;;;0.57;;
40072;SDS011;25774;52.256;9.356;2023-07-30T18:05:45;2.38;;;0.57;;
40072;SDS011;25774;52.256;9.356;2023-07-30T18:08:11;1.75;;;0.52;;
40072;SDS011;25774;52.256;9.356;2023-07-30T18:13:02;2.08;;;0.60;;
40072;SDS011;25774;52.256;9.356;2023-07-30T18:17:53;2.42;;;0.50;;
40072;SDS011;25774;52.256;9.356;2023-07-30T18:20:19;2.50;;;0.50;;
40072;SDS011;25774;52.256;9.356;2023-07-30T18:22:44;2.08;;;0.50;;
40072;SDS011;25774;52.256;9.356;2023-07-30T18:27:35;4.35;;;0.60;;